Time;durP1;ratioP1;P1;durP2;ratioP2;P2;SDS_P1;SDS_P2;PMS_P1;PMS_P2;Temp;Humidity;BMP_temperature;BMP_pressure;BME280_temperature;BME280_humidity;BME280_pressure;Samples;Min_cycle;Max_cycle;Signal;HPM_P1;HPM_P2
2024/03/13 00:00:22;;;;;;;6.75;5.30;;;6.70;99.90;;;;;;5020251;28;20215;-76
2024/03/13 00:02:49;;;;;;;8.52;5.78;;;6.60;99.90;;;;;;5019515;28;20207;-76
2024/03/13 00:05:17;;;;;;;5.03;4.43;;;6.70;99.90;;;;;;5022118;28;20741;-76
2024/03/13 00:07:44;;;;;;;7.60;5.68;;;6.70;99.90;;;;;;5046102;28;20204;-76
2024/03/13 00:10:12;;;;;;;5.50;4.72;;;6.60;99.90;;;;;;5016168;28;20305;-76
2024/03/13 00:12:42;;;;;;;5.95;5.00;;;6.70;99.90;;;;;;5028135;28;20261;-76
2024/03/13 00:15:10;;;;;;;7.18;4.80;;;6.60;99.90;;;;;;5018753;28;20252;-76
2024/03/13 00:17:38;;;;;;;4.60;3.38;;;6.60;99.90;;;;;;5016036;28;20216;-77
2024/03/13 00:20:05;;;;;;;4.30;3.90;;;6.60;99.90;;;;;;5034111;28;20634;-76
2024/03/13 00:22:36;;;;;;;5.03;3.63;;;6.60;99.90;;;;;;5027223;28;20264;-76
2024/03/13 00:25:03;;;;;;;7.13;4.95;;;6.70;99.90;;;;;;5029445;28;20261;-77
2024/03/13 00:27:30;;;;;;;5.85;3.45;;;6.60;99.90;;;;;;5014946;28;20197;-77
2024/03/13 00:29:59;;;;;;;3.90;3.28;;;6.50;99.90;;;;;;5014906;28;20664;-77
2024/03/13 00:32:25;;;;;;;4.45;3.83;;;6.70;99.90;;;;;;5009597;28;20296;-78
2024/03/13 00:34:52;;;;;;;5.70;3.70;;;6.60;99.90;;;;;;5037283;28;20806;-77
2024/03/13 00:37:21;;;;;;;3.88;3.47;;;6.60;99.90;;;;;;5026656;28;20205;-77
2024/03/13 00:39:48;;;;;;;5.70;3.78;;;6.60;99.90;;;;;;5034085;28;20196;-77
2024/03/13 00:42:15;;;;;;;5.13;2.90;;;6.60;99.90;;;;;;5070835;27;20240;-78
2024/03/13 00:44:43;;;;;;;3.05;2.45;;;6.60;99.90;;;;;;5047137;27;20362;-77
2024/03/13 00:47:14;;;;;;;3.40;2.58;;;6.60;99.90;;;;;;5027340;28;20205;-77
2024/03/13 00:49:42;;;;;;;4.60;4.20;;;6.60;99.90;;;;;;5030202;28;20623;-77
2024/03/13 00:52:08;;;;;;;2.60;2.40;;;6.50;99.90;;;;;;5025129;28;20662;-77
2024/03/13 00:54:35;;;;;;;3.10;2.90;;;6.40;99.90;;;;;;5011701;28;20263;-77
2024/03/13 00:57:02;;;;;;;3.20;2.58;;;6.40;99.90;;;;;;5030260;28;20204;-77
2024/03/13 00:59:29;;;;;;;2.58;2.17;;;6.50;99.90;;;;;;5020651;28;20216;-77
2024/03/13 01:01:56;;;;;;;5.25;2.72;;;6.50;99.90;;;;;;5026805;28;20201;-77
2024/03/13 01:04:25;;;;;;;2.28;2.10;;;6.50;99.90;;;;;;5018154;28;20578;-77
2024/03/13 01:06:52;;;;;;;3.58;2.40;;;6.50;99.90;;;;;;5014615;28;20197;-77
2024/03/13 01:09:19;;;;;;;3.03;2.50;;;6.40;99.90;;;;;;5021537;28;20553;-77
2024/03/13 01:11:47;;;;;;;2.88;2.20;;;6.50;99.90;;;;;;5031500;28;20218;-77
2024/03/13 01:14:19;;;;;;;2.78;2.50;;;6.50;99.90;;;;;;5030868;28;20557;-77
2024/03/13 01:16:47;;;;;;;5.68;2.47;;;6.50;99.90;;;;;;5036880;28;20197;-77
2024/03/13 01:19:13;;;;;;;2.33;1.85;;;6.50;99.90;;;;;;5030152;28;20582;-77
2024/03/13 01:21:41;;;;;;;2.35;2.15;;;6.50;99.90;;;;;;5010422;28;20250;-77
2024/03/13 01:24:08;;;;;;;4.97;2.13;;;6.50;99.90;;;;;;5023285;28;20291;-77
2024/03/13 01:26:35;;;;;;;1.88;1.52;;;6.40;99.90;;;;;;5032587;28;20209;-77
2024/03/13 01:29:02;;;;;;;1.92;1.55;;;6.50;99.90;;;;;;5036876;28;20670;-77
2024/03/13 01:31:28;;;;;;;1.83;1.70;;;6.60;99.90;;;;;;5022539;28;20714;-76
2024/03/13 01:33:56;;;;;;;1.50;1.35;;;6.50;99.90;;;;;;5027095;28;20216;-77
2024/03/13 01:37:55;;;;;;;1.65;1.55;;;6.50;99.90;;;;;;5025465;28;20192;-77
2024/03/13 01:39:10;;;;;;;1.45;1.35;;;6.50;99.90;;;;;;5028902;28;20216;-77
2024/03/13 01:55:49;;;;;;;1.10;1.00;;;6.50;99.90;;;;;;5030415;28;20200;-77
2024/03/13 01:58:29;;;;;;;2.45;1.25;;;6.40;99.90;;;;;;5018339;28;20233;-76
2024/03/13 02:03:41;;;;;;;3.22;0.95;;;6.50;99.90;;;;;;5039633;28;20196;-76
2024/03/13 02:06:08;;;;;;;2.90;0.75;;;6.50;99.90;;;;;;5026479;28;20252;-77
2024/03/13 02:08:36;;;;;;;1.35;1.05;;;6.40;99.90;;;;;;5045521;28;20621;-77
2024/03/13 02:11:04;;;;;;;2.33;0.95;;;6.40;99.90;;;;;;5030599;28;20198;-76
2024/03/13 02:13:31;;;;;;;1.25;1.15;;;6.40;99.90;;;;;;5020148;28;20208;-76
2024/03/13 02:15:58;;;;;;;1.13;1.02;;;6.40;99.90;;;;;;5027905;28;20602;-76
2024/03/13 02:18:29;;;;;;;0.90;0.90;;;6.30;99.90;;;;;;5026601;28;20228;-77
2024/03/13 02:20:58;;;;;;;1.23;1.13;;;6.40;99.90;;;;;;5025191;28;20223;-76
2024/03/13 02:23:27;;;;;;;1.40;1.30;;;6.30;99.90;;;;;;5023821;28;20240;-76
2024/03/13 02:25:56;;;;;;;1.50;1.40;;;6.40;99.90;;;;;;5125953;27;20213;-76
2024/03/13 02:28:32;;;;;;;1.35;1.25;;;6.30;99.90;;;;;;5075862;28;20277;-76
2024/03/13 02:31:00;;;;;;;1.67;1.02;;;6.40;99.90;;;;;;5100208;27;20295;-76
2024/03/13 02:33:29;;;;;;;1.23;1.13;;;6.40;99.90;;;;;;5106685;27;20262;-76
2024/03/13 02:35:56;;;;;;;1.85;1.20;;;6.40;99.90;;;;;;5011498;28;20197;-76
2024/03/13 02:38:23;;;;;;;1.30;1.10;;;6.40;99.90;;;;;;5020774;28;20299;-76
2024/03/13 02:40:50;;;;;;;1.50;1.23;;;6.40;99.90;;;;;;5076661;28;20207;-76
2024/03/13 02:43:17;;;;;;;1.15;1.05;;;6.40;99.90;;;;;;5107775;28;20750;-76
2024/03/13 02:45:44;;;;;;;0.88;0.88;;;6.40;99.90;;;;;;5107790;27;20226;-75
2024/03/13 02:48:11;;;;;;;2.03;1.05;;;6.30;99.90;;;;;;5012834;28;20211;-76
2024/03/13 02:50:40;;;;;;;1.30;1.20;;;6.30;99.90;;;;;;5024804;28;20562;-75
2024/03/13 02:53:08;;;;;;;1.80;1.10;;;6.20;99.90;;;;;;5005869;28;20197;-75
2024/03/13 02:55:35;;;;;;;1.67;1.20;;;6.20;99.90;;;;;;5067086;28;20201;-75
2024/03/13 02:58:03;;;;;;;0.93;0.85;;;6.30;99.90;;;;;;5015298;28;20204;-75
2024/03/13 03:00:30;;;;;;;1.00;0.80;;;6.20;99.90;;;;;;5007863;28;20255;-75
2024/03/13 03:03:01;;;;;;;1.10;1.10;;;6.30;99.90;;;;;;5017672;28;20204;-75
2024/03/13 03:05:29;;;;;;;0.90;0.70;;;6.20;99.90;;;;;;5039249;28;20208;-75
2024/03/13 03:07:58;;;;;;;1.35;1.05;;;6.30;99.90;;;;;;5027382;28;20677;-75
2024/03/13 03:10:25;;;;;;;0.90;0.90;;;6.20;99.90;;;;;;5112131;28;20222;-75
2024/03/13 03:12:54;;;;;;;1.65;1.55;;;6.20;99.90;;;;;;5031292;28;20636;-75
2024/03/13 03:15:23;;;;;;;1.88;1.75;;;6.20;99.90;;;;;;5006889;28;20198;-75
2024/03/13 03:17:53;;;;;;;1.45;1.35;;;6.20;99.90;;;;;;5011926;28;20249;-75
2024/03/13 03:20:22;;;;;;;2.08;1.88;;;6.30;99.90;;;;;;5100984;28;20740;-75
2024/03/13 03:22:49;;;;;;;2.55;1.27;;;6.30;99.90;;;;;;5080554;28;20197;-75
2024/03/13 03:25:16;;;;;;;2.25;1.90;;;6.20;99.90;;;;;;5069038;28;20295;-75
2024/03/13 03:27:44;;;;;;;1.90;1.70;;;6.30;99.90;;;;;;5010632;28;20202;-75
2024/03/13 03:30:12;;;;;;;1.73;1.60;;;6.30;99.90;;;;;;5091391;27;20702;-76
2024/03/13 03:32:40;;;;;;;1.58;1.27;;;6.20;99.90;;;;;;5027116;28;20336;-75
2024/03/13 03:35:10;;;;;;;1.90;1.70;;;6.20;99.90;;;;;;5123375;27;20279;-76
2024/03/13 03:37:38;;;;;;;2.13;1.45;;;6.30;99.90;;;;;;5016512;28;20542;-75
2024/03/13 03:40:13;;;;;;;1.40;1.30;;;6.30;99.90;;;;;;5015074;28;20602;-75
2024/03/13 03:42:41;;;;;;;1.75;1.40;;;6.30;99.90;;;;;;5020722;28;20210;-75
2024/03/13 03:45:09;;;;;;;1.85;1.65;;;6.30;99.90;;;;;;4998164;28;20212;-75
2024/03/13 03:47:38;;;;;;;4.25;1.35;;;6.20;99.90;;;;;;5107834;27;20189;-75
2024/03/13 03:50:07;;;;;;;1.85;1.48;;;6.30;99.90;;;;;;5032905;27;20213;-75
2024/03/13 03:52:34;;;;;;;1.73;1.63;;;6.30;99.90;;;;;;5111860;27;20193;-75
2024/03/13 03:55:03;;;;;;;1.73;1.30;;;6.30;99.90;;;;;;5116219;27;20196;-75
2024/03/13 03:57:31;;;;;;;1.58;1.40;;;6.30;99.90;;;;;;5022464;28;20201;-75
2024/03/13 03:59:59;;;;;;;1.40;1.30;;;6.20;99.90;;;;;;5102368;27;20198;-75
2024/03/13 04:02:27;;;;;;;1.80;1.65;;;6.20;99.90;;;;;;5028482;28;20200;-75
2024/03/13 04:04:54;;;;;;;1.88;1.70;;;6.10;99.90;;;;;;5114872;27;20533;-75
2024/03/13 04:07:22;;;;;;;2.10;1.90;;;6.20;99.90;;;;;;5130593;27;20201;-75
2024/03/13 04:09:49;;;;;;;2.72;1.65;;;6.10;99.90;;;;;;5100060;27;20250;-75
2024/03/13 04:12:16;;;;;;;1.90;1.80;;;6.10;99.90;;;;;;5112744;27;20193;-75
2024/03/13 04:14:45;;;;;;;3.00;1.60;;;6.20;99.90;;;;;;4997211;28;20215;-74
2024/03/13 04:17:12;;;;;;;1.73;1.63;;;6.10;99.90;;;;;;5023019;28;20287;-75
2024/03/13 04:19:42;;;;;;;3.53;2.05;;;6.10;99.90;;;;;;5030066;28;20305;-75
2024/03/13 04:22:13;;;;;;;1.90;1.80;;;6.10;99.90;;;;;;5021694;28;20944;-75
2024/03/13 04:24:40;;;;;;;2.83;2.63;;;6.10;99.90;;;;;;5003941;28;20511;-75
2024/03/13 04:27:08;;;;;;;2.45;2.10;;;6.10;99.90;;;;;;5028428;28;20688;-75
2024/03/13 04:29:35;;;;;;;2.75;2.38;;;6.10;99.90;;;;;;5010506;28;20200;-75
2024/03/13 04:32:02;;;;;;;3.03;2.60;;;6.00;99.90;;;;;;5017447;28;20258;-75
2024/03/13 04:34:29;;;;;;;2.33;2.13;;;6.00;99.90;;;;;;5117293;27;20196;-75
2024/03/13 04:36:56;;;;;;;3.78;2.63;;;6.10;99.90;;;;;;5011521;28;20201;-75
2024/03/13 04:39:23;;;;;;;2.95;2.67;;;6.10;99.90;;;;;;5010076;28;20286;-75
2024/03/13 04:41:50;;;;;;;2.55;2.35;;;6.10;99.90;;;;;;5011346;28;20211;-75
2024/03/13 04:44:17;;;;;;;4.15;2.50;;;6.10;99.90;;;;;;5020961;28;20197;-75
2024/03/13 04:46:44;;;;;;;2.67;2.47;;;6.10;99.90;;;;;;5129552;27;20219;-75
2024/03/13 04:49:11;;;;;;;2.30;2.10;;;6.10;99.90;;;;;;5031062;28;20681;-75
2024/03/13 04:51:38;;;;;;;3.13;2.83;;;6.00;99.90;;;;;;5009763;28;20254;-75
2024/03/13 04:54:06;;;;;;;2.83;2.30;;;5.90;99.90;;;;;;5106932;27;20479;-75
2024/03/13 04:56:34;;;;;;;3.75;2.97;;;6.00;99.90;;;;;;5105487;27;20201;-74
2024/03/13 04:59:01;;;;;;;5.80;3.00;;;6.00;99.90;;;;;;5020732;27;20221;-75
2024/03/13 05:01:27;;;;;;;5.05;3.75;;;5.90;99.90;;;;;;5009896;28;20203;-75
2024/03/13 05:03:54;;;;;;;3.53;3.20;;;6.10;99.90;;;;;;5101586;27;20193;-75
2024/03/13 05:06:22;;;;;;;6.07;4.00;;;6.10;99.90;;;;;;5029748;28;20220;-75
2024/03/13 05:08:50;;;;;;;3.97;3.50;;;6.00;99.90;;;;;;5106277;27;20233;-75
2024/03/13 05:11:17;;;;;;;4.00;3.33;;;6.10;99.90;;;;;;5107799;27;20500;-75
2024/03/13 05:13:45;;;;;;;3.60;3.30;;;6.00;99.90;;;;;;5097216;27;20204;-74
2024/03/13 05:16:12;;;;;;;4.32;3.90;;;6.00;99.90;;;;;;5090290;27;20197;-75
2024/03/13 05:18:39;;;;;;;4.15;3.75;;;6.00;99.90;;;;;;5027248;28;20201;-75
2024/03/13 05:21:06;;;;;;;4.20;3.72;;;6.00;99.90;;;;;;5037696;27;20386;-75
2024/03/13 05:23:33;;;;;;;4.72;3.75;;;6.00;99.90;;;;;;5116407;27;20199;-75
2024/03/13 05:26:00;;;;;;;4.82;3.92;;;6.00;99.90;;;;;;5034078;28;20728;-75
2024/03/13 05:28:28;;;;;;;5.03;4.18;;;6.00;99.90;;;;;;5019616;28;20199;-75
2024/03/13 05:30:55;;;;;;;4.05;3.72;;;6.10;99.90;;;;;;5129312;27;20273;-75
2024/03/13 05:33:22;;;;;;;4.32;3.92;;;6.10;99.90;;;;;;5064269;28;20610;-75
2024/03/13 05:35:49;;;;;;;5.28;4.22;;;6.10;99.90;;;;;;5028559;28;20291;-75
2024/03/13 05:38:16;;;;;;;4.30;3.90;;;6.10;99.90;;;;;;5010916;28;20196;-75
2024/03/13 05:40:43;;;;;;;6.75;4.80;;;6.10;99.90;;;;;;4991692;28;20258;-74
2024/03/13 05:43:11;;;;;;;5.35;4.03;;;6.00;99.90;;;;;;5006331;28;20219;-75
2024/03/13 05:45:38;;;;;;;4.95;4.30;;;6.10;99.90;;;;;;5023402;27;20205;-74
2024/03/13 05:48:05;;;;;;;5.20;4.45;;;6.10;99.90;;;;;;5123988;27;20269;-75
2024/03/13 05:50:32;;;;;;;6.65;5.10;;;6.10;99.90;;;;;;5016985;28;20207;-75
2024/03/13 05:52:59;;;;;;;4.78;4.28;;;6.10;99.90;;;;;;5013996;28;20569;-75
2024/03/13 05:55:26;;;;;;;6.18;5.47;;;6.10;99.90;;;;;;5006886;28;20201;-75
2024/03/13 05:57:54;;;;;;;7.10;6.22;;;6.20;99.90;;;;;;5038562;28;20282;-75
2024/03/13 06:00:22;;;;;;;7.70;5.65;;;6.20;99.90;;;;;;5020566;28;20657;-75
2024/03/13 06:02:49;;;;;;;6.07;4.65;;;6.20;99.90;;;;;;5016444;28;20564;-75
2024/03/13 06:05:17;;;;;;;6.50;5.38;;;6.20;99.90;;;;;;5011361;28;20196;-75
2024/03/13 06:07:44;;;;;;;7.85;5.85;;;6.20;99.90;;;;;;5005792;28;20226;-75
2024/03/13 06:10:11;;;;;;;6.63;5.90;;;6.20;99.90;;;;;;5006026;28;20201;-74
2024/03/13 06:12:38;;;;;;;9.23;6.88;;;6.10;99.90;;;;;;5033409;28;20623;-74
2024/03/13 06:15:07;;;;;;;7.97;5.78;;;6.30;99.90;;;;;;5061010;28;20626;-75
2024/03/13 06:17:34;;;;;;;7.30;5.77;;;6.30;99.90;;;;;;5074562;28;20702;-74
2024/03/13 06:20:02;;;;;;;7.50;5.75;;;6.30;99.90;;;;;;5017800;28;20961;-76
2024/03/13 06:22:28;;;;;;;7.05;5.90;;;6.20;99.90;;;;;;5003983;28;20203;-78
2024/03/13 06:25:00;;;;;;;8.70;6.00;;;6.30;99.90;;;;;;5021056;28;20236;-78
2024/03/13 06:27:28;;;;;;;7.28;6.35;;;6.30;99.90;;;;;;5026419;28;20228;-74
2024/03/13 06:29:58;;;;;;;8.32;5.60;;;6.20;99.90;;;;;;5113285;27;20204;-75
2024/03/13 06:32:26;;;;;;;9.85;6.15;;;6.40;99.90;;;;;;5031738;28;20209;-74
2024/03/13 06:34:55;;;;;;;6.40;4.93;;;6.40;99.90;;;;;;5020177;28;20209;-74
2024/03/13 06:37:22;;;;;;;6.78;5.07;;;6.40;99.90;;;;;;5121618;27;20209;-73
2024/03/13 06:39:49;;;;;;;8.98;6.15;;;6.40;99.90;;;;;;5017689;28;20212;-77
2024/03/13 06:42:16;;;;;;;6.43;5.20;;;6.40;99.90;;;;;;5016105;28;20201;-77
2024/03/13 06:44:43;;;;;;;5.80;5.18;;;6.40;99.90;;;;;;5103887;27;20646;-77
2024/03/13 06:47:11;;;;;;;6.85;5.57;;;6.40;99.90;;;;;;5097999;27;20322;-78
2024/03/13 06:49:38;;;;;;;7.28;5.55;;;6.40;99.90;;;;;;5006386;28;20756;-85
2024/03/13 06:52:05;;;;;;;7.15;4.85;;;6.50;99.90;;;;;;5007299;28;20219;-78
2024/03/13 06:54:32;;;;;;;8.80;6.38;;;6.50;99.90;;;;;;5010496;28;20237;-78
2024/03/13 06:56:59;;;;;;;6.65;5.35;;;6.60;99.90;;;;;;5120632;27;20276;-77
2024/03/13 06:59:26;;;;;;;6.80;5.55;;;6.40;99.90;;;;;;5018979;28;20687;-78
2024/03/13 07:01:55;;;;;;;7.25;5.30;;;6.50;99.90;;;;;;5010202;28;20221;-77
2024/03/13 07:04:23;;;;;;;7.78;5.20;;;6.70;99.90;;;;;;5102189;27;20208;-76
2024/03/13 07:06:56;;;;;;;7.35;5.97;;;6.60;99.90;;;;;;5009149;28;20625;-77
2024/03/13 07:09:23;;;;;;;6.63;5.77;;;6.60;99.90;;;;;;5031582;28;20996;-77
2024/03/13 07:11:50;;;;;;;5.72;4.95;;;6.60;99.90;;;;;;5037080;27;20981;-79
2024/03/13 07:14:17;;;;;;;4.15;3.75;;;6.60;99.90;;;;;;5051339;27;20596;-79
2024/03/13 07:16:44;;;;;;;8.07;5.22;;;6.70;99.90;;;;;;5035652;28;20205;-79
2024/03/13 07:19:11;;;;;;;9.60;5.73;;;6.70;99.90;;;;;;5040316;28;20209;-78
2024/03/13 07:21:38;;;;;;;9.20;5.43;;;6.70;99.90;;;;;;5015369;28;20987;-78
2024/03/13 07:24:05;;;;;;;5.83;4.97;;;6.90;99.90;;;;;;5025016;28;20208;-78
2024/03/13 07:26:32;;;;;;;6.97;6.00;;;6.90;99.90;;;;;;5011117;28;20657;-78
2024/03/13 07:29:00;;;;;;;8.80;6.20;;;6.90;99.90;;;;;;5014071;28;20638;-77
2024/03/13 07:31:27;;;;;;;8.00;5.67;;;7.00;99.90;;;;;;5028874;28;21085;-77
2024/03/13 07:33:55;;;;;;;10.60;4.53;;;6.90;99.90;;;;;;5008259;28;20630;-78
2024/03/13 07:36:22;;;;;;;7.83;6.27;;;7.00;99.90;;;;;;5013606;28;20634;-78
2024/03/13 07:38:49;;;;;;;7.70;6.10;;;7.00;99.90;;;;;;5021620;28;21186;-78
2024/03/13 07:41:16;;;;;;;8.80;6.20;;;7.10;99.90;;;;;;5108567;27;20624;-79
2024/03/13 07:43:42;;;;;;;5.97;5.20;;;7.10;99.90;;;;;;5010049;28;20829;-77
2024/03/13 07:46:10;;;;;;;7.50;6.03;;;7.20;99.90;;;;;;5028273;27;20631;-78
2024/03/13 07:48:37;;;;;;;8.67;5.80;;;7.20;99.90;;;;;;5010023;28;20615;-78
2024/03/13 07:51:06;;;;;;;9.43;6.43;;;7.20;99.90;;;;;;5014797;28;20678;-77
2024/03/13 07:53:33;;;;;;;8.88;6.22;;;7.20;99.90;;;;;;5099166;27;20213;-78
2024/03/13 07:56:00;;;;;;;7.20;6.30;;;7.30;99.90;;;;;;5008183;28;20282;-79
2024/03/13 07:58:27;;;;;;;10.97;7.43;;;7.30;99.90;;;;;;5024509;28;21036;-78
2024/03/13 08:00:54;;;;;;;7.80;6.30;;;7.20;99.90;;;;;;5043361;27;20730;-78
2024/03/13 08:03:21;;;;;;;6.50;5.60;;;7.40;99.90;;;;;;5116486;27;20629;-77
2024/03/13 08:05:48;;;;;;;9.23;6.60;;;7.40;99.90;;;;;;5005949;28;20722;-78
2024/03/13 08:08:15;;;;;;;6.70;5.37;;;7.40;99.90;;;;;;5009615;28;20653;-77
2024/03/13 08:10:42;;;;;;;7.30;5.00;;;7.40;99.90;;;;;;5026555;28;21275;-77
2024/03/13 08:13:08;;;;;;;7.00;6.30;;;7.50;99.90;;;;;;5007730;28;20623;-78
2024/03/13 08:15:35;;;;;;;7.27;6.33;;;7.50;99.90;;;;;;5109022;27;20796;-75
2024/03/13 08:18:02;;;;;;;7.57;6.77;;;7.50;99.90;;;;;;5022139;28;20653;-77
2024/03/13 08:20:29;;;;;;;7.20;6.10;;;7.60;99.90;;;;;;5010046;28;20719;-77
2024/03/13 08:22:57;;;;;;;8.60;5.40;;;7.60;99.90;;;;;;5007367;28;20734;-79
2024/03/13 08:25:24;;;;;;;5.90;4.93;;;7.70;99.90;;;;;;5109822;27;20638;-78
2024/03/13 08:27:51;;;;;;;5.03;4.60;;;7.50;99.90;;;;;;5023701;28;20749;-78
2024/03/13 08:30:18;;;;;;;5.47;3.97;;;7.70;99.90;;;;;;5108655;27;20625;-78
2024/03/13 08:32:45;;;;;;;4.67;4.07;;;7.70;99.90;;;;;;5010025;28;20639;-77
2024/03/13 08:35:13;;;;;;;6.50;4.67;;;7.90;99.90;;;;;;5010723;28;20624;-77
2024/03/13 08:37:41;;;;;;;5.63;4.00;;;7.90;99.90;;;;;;5010983;28;21053;-77
2024/03/13 08:40:11;;;;;;;4.67;4.27;;;8.00;99.90;;;;;;5012689;28;20642;-77
2024/03/13 08:42:39;;;;;;;4.60;4.20;;;8.00;99.90;;;;;;5011061;28;21263;-77
2024/03/13 08:45:08;;;;;;;5.83;4.07;;;8.00;99.90;;;;;;5106109;27;20687;-77
2024/03/13 08:47:35;;;;;;;4.30;3.90;;;8.20;99.90;;;;;;5008710;28;20651;-77
2024/03/13 08:50:03;;;;;;;4.70;4.20;;;8.20;99.90;;;;;;5012845;28;21113;-76
2024/03/13 08:52:30;;;;;;;3.87;3.57;;;8.30;99.90;;;;;;5010966;28;20693;-77
2024/03/13 08:54:57;;;;;;;4.43;3.50;;;8.40;99.90;;;;;;5008495;28;20627;-75
2024/03/13 08:57:28;;;;;;;3.40;2.70;;;8.40;99.90;;;;;;5032729;27;20713;-75
2024/03/13 08:59:55;;;;;;;2.67;2.47;;;8.40;99.90;;;;;;5009215;28;20635;-74
2024/03/13 09:02:23;;;;;;;3.63;3.33;;;8.50;99.90;;;;;;5007531;28;20643;-75
2024/03/13 09:04:50;;;;;;;6.13;2.87;;;8.60;99.90;;;;;;5012496;28;20628;-75
2024/03/13 09:07:17;;;;;;;2.80;2.60;;;8.60;99.90;;;;;;5025012;28;21073;-75
2024/03/13 09:09:44;;;;;;;2.57;2.37;;;8.70;99.90;;;;;;5009618;28;20635;-76
2024/03/13 09:12:13;;;;;;;2.30;2.10;;;8.80;99.90;;;;;;5102107;27;20732;-75
2024/03/13 09:14:40;;;;;;;2.00;1.87;;;8.80;99.90;;;;;;5004357;28;20621;-76
2024/03/13 09:17:08;;;;;;;2.00;1.80;;;8.80;99.90;;;;;;5102264;27;20964;-76
2024/03/13 09:19:37;;;;;;;2.40;2.20;;;8.90;99.90;;;;;;5007661;28;20627;-77
2024/03/13 09:22:04;;;;;;;1.60;1.50;;;8.90;99.90;;;;;;5024259;28;20633;-77
2024/03/13 09:24:31;;;;;;;1.93;1.73;;;8.90;99.90;;;;;;5010955;28;20865;-76
2024/03/13 09:26:58;;;;;;;1.60;1.50;;;9.00;99.90;;;;;;5003047;28;20630;-76
2024/03/13 09:29:25;;;;;;;3.37;2.00;;;9.00;99.90;;;;;;5023839;28;20633;-77
2024/03/13 09:31:52;;;;;;;1.97;1.60;;;9.10;99.90;;;;;;5005550;28;20629;-76
2024/03/13 09:34:19;;;;;;;1.70;1.60;;;9.10;99.90;;;;;;5011401;28;21193;-76
2024/03/13 09:36:46;;;;;;;2.10;1.70;;;9.10;99.90;;;;;;5010715;28;20627;-76
2024/03/13 09:39:13;;;;;;;1.27;1.27;;;9.20;99.90;;;;;;5011287;28;21244;-77
2024/03/13 09:41:40;;;;;;;1.57;1.40;;;9.30;99.90;;;;;;5007346;28;20653;-77
2024/03/13 09:44:07;;;;;;;2.27;2.10;;;9.30;99.90;;;;;;5008339;28;20659;-77
2024/03/13 09:46:34;;;;;;;2.97;1.57;;;9.30;99.90;;;;;;5021861;28;21028;-77
2024/03/13 09:49:01;;;;;;;1.47;1.30;;;9.30;99.90;;;;;;5022909;28;20747;-76
2024/03/13 09:51:28;;;;;;;2.20;1.80;;;9.40;99.90;;;;;;5010869;28;21510;-76
2024/03/13 09:53:55;;;;;;;1.30;1.20;;;9.40;99.90;;;;;;5008300;28;20647;-77
2024/03/13 09:56:22;;;;;;;1.83;1.47;;;9.40;99.90;;;;;;5024710;28;20627;-77
2024/03/13 09:58:50;;;;;;;1.53;1.43;;;9.50;99.90;;;;;;5023157;28;20620;-77
2024/03/13 10:01:19;;;;;;;1.80;1.70;;;9.60;99.90;;;;;;5028455;28;20622;-77
2024/03/13 10:03:47;;;;;;;1.47;1.37;;;9.60;99.90;;;;;;5009445;28;20638;-77
2024/03/13 10:06:14;;;;;;;1.40;1.30;;;9.60;99.90;;;;;;5003356;28;20657;-77
2024/03/13 10:08:42;;;;;;;1.67;1.57;;;9.70;99.90;;;;;;5014731;28;20738;-77
2024/03/13 10:11:09;;;;;;;2.00;1.90;;;9.80;99.90;;;;;;5058362;27;20747;-77
2024/03/13 10:13:37;;;;;;;1.57;1.47;;;9.80;99.90;;;;;;5014462;28;20628;-77
2024/03/13 10:16:06;;;;;;;1.30;1.20;;;9.90;99.90;;;;;;5102932;27;20738;-77
2024/03/13 10:18:33;;;;;;;1.50;1.40;;;9.90;99.90;;;;;;5004052;28;20721;-77
2024/03/13 10:21:00;;;;;;;1.70;1.57;;;9.90;99.90;;;;;;5108547;27;20619;-78
2024/03/13 10:23:27;;;;;;;2.17;2.07;;;10.00;99.90;;;;;;5024641;28;20735;-77
2024/03/13 10:25:56;;;;;;;1.53;1.43;;;10.10;99.90;;;;;;5010195;28;20656;-77
2024/03/13 10:28:23;;;;;;;1.37;1.33;;;10.10;99.90;;;;;;5028709;28;20663;-86
2024/03/13 10:30:52;;;;;;;1.73;1.63;;;10.30;99.90;;;;;;5126750;27;20618;-75
2024/03/13 10:33:19;;;;;;;1.73;1.63;;;10.20;99.90;;;;;;5007661;28;20645;-78
2024/03/13 10:35:46;;;;;;;1.60;1.50;;;10.20;99.90;;;;;;5107313;27;20631;-81
2024/03/13 10:38:14;;;;;;;1.47;1.37;;;10.20;99.90;;;;;;5108114;27;20621;-77
2024/03/13 10:40:41;;;;;;;1.80;1.70;;;10.20;99.90;;;;;;5011891;28;20631;-77
2024/03/13 10:43:09;;;;;;;1.40;1.30;;;10.30;99.90;;;;;;5011166;28;21003;-77
2024/03/13 10:45:36;;;;;;;1.40;1.30;;;10.30;99.90;;;;;;4998754;28;20623;-81
2024/03/13 10:48:06;;;;;;;1.63;1.53;;;10.50;99.90;;;;;;5005043;28;20767;-78
2024/03/13 10:50:33;;;;;;;2.43;2.00;;;10.50;99.90;;;;;;5032806;28;20639;-79
2024/03/13 10:53:01;;;;;;;2.40;2.20;;;10.50;99.90;;;;;;5008499;28;21530;-76
2024/03/13 10:55:28;;;;;;;2.50;2.00;;;10.60;99.90;;;;;;5019703;28;20615;-78
2024/03/13 10:57:55;;;;;;;2.20;2.00;;;10.50;99.90;;;;;;5117674;28;20616;-78
2024/03/13 11:00:22;;;;;;;2.20;1.70;;;10.50;99.90;;;;;;5006861;28;20708;-78
2024/03/13 11:02:50;;;;;;;1.73;1.63;;;10.40;99.90;;;;;;5010715;28;20627;-79
2024/03/13 11:05:17;;;;;;;3.10;1.70;;;10.40;99.90;;;;;;5009952;28;20624;-77
2024/03/13 11:07:45;;;;;;;2.70;2.30;;;10.50;99.90;;;;;;5010760;28;21300;-76
2024/03/13 11:10:13;;;;;;;4.33;4.03;;;10.50;99.90;;;;;;5013640;28;20630;-76
2024/03/13 11:12:41;;;;;;;2.73;2.40;;;10.50;99.90;;;;;;5008575;28;20647;-76
2024/03/13 11:15:08;;;;;;;1.80;1.70;;;10.40;99.90;;;;;;5009589;28;20646;-76
2024/03/13 11:17:35;;;;;;;2.97;2.67;;;10.50;99.90;;;;;;5010508;28;20624;-75
2024/03/13 11:20:05;;;;;;;3.07;2.80;;;10.40;99.90;;;;;;5010109;28;21129;-75
2024/03/13 11:22:32;;;;;;;4.27;3.03;;;10.40;99.90;;;;;;5100824;28;20985;-75
2024/03/13 11:25:00;;;;;;;2.37;2.17;;;10.40;99.90;;;;;;5016062;28;21090;-76
2024/03/13 11:27:28;;;;;;;1.97;1.73;;;10.40;99.90;;;;;;5017368;28;20677;-76
2024/03/13 11:29:55;;;;;;;2.37;1.80;;;10.50;99.90;;;;;;5018711;28;20619;-84
2024/03/13 11:32:23;;;;;;;5.00;1.90;;;10.50;99.90;;;;;;5023122;28;20708;-85
2024/03/13 11:34:50;;;;;;;2.60;2.33;;;10.60;99.90;;;;;;5007253;28;20713;-85
2024/03/13 11:37:16;;;;;;;2.10;1.87;;;10.60;99.90;;;;;;5011494;28;20735;-84
2024/03/13 11:39:43;;;;;;;7.83;5.57;;;10.70;99.90;;;;;;5006855;28;20616;-79
2024/03/13 11:42:13;;;;;;;3.30;3.03;;;10.80;99.90;;;;;;5021462;28;20737;-78
2024/03/13 11:44:43;;;;;;;3.57;3.27;;;10.90;99.90;;;;;;5009163;28;20629;-79
2024/03/13 11:47:11;;;;;;;11.83;7.60;;;10.90;99.90;;;;;;5005211;28;20734;-78
2024/03/13 11:49:39;;;;;;;7.30;4.57;;;10.90;99.90;;;;;;5017517;28;21087;-78
2024/03/13 11:52:12;;;;;;;2.77;2.57;;;10.90;99.90;;;;;;5016781;27;21190;-81
2024/03/13 11:54:43;;;;;;;2.00;1.87;;;10.80;99.90;;;;;;5025145;28;20633;-78
2024/03/13 11:57:12;;;;;;;2.33;2.13;;;10.80;99.90;;;;;;5032634;27;20637;-78
2024/03/13 11:59:40;;;;;;;1.97;1.83;;;10.80;99.90;;;;;;5010881;28;20627;-70
2024/03/13 12:02:08;;;;;;;2.60;2.23;;;10.80;99.90;;;;;;5048454;28;20642;-71
2024/03/13 12:04:38;;;;;;;2.30;1.97;;;10.90;99.90;;;;;;5033012;27;20637;-71
2024/03/13 12:07:04;;;;;;;1.73;1.63;;;11.00;99.90;;;;;;5071773;27;20625;-73
2024/03/13 12:09:31;;;;;;;1.63;1.53;;;11.10;99.90;;;;;;5014955;28;20754;-73
2024/03/13 12:12:04;;;;;;;1.93;1.57;;;11.30;99.90;;;;;;5016926;28;20727;-74
2024/03/13 12:14:32;;;;;;;1.20;1.10;;;11.20;99.90;;;;;;5026098;27;21292;-74
2024/03/13 12:16:58;;;;;;;1.00;1.00;;;11.20;99.90;;;;;;5074139;27;20634;-74
2024/03/13 12:19:27;;;;;;;2.30;2.10;;;11.20;99.90;;;;;;5013160;28;20718;-73
2024/03/13 12:21:54;;;;;;;1.80;1.70;;;11.30;99.90;;;;;;5015163;28;21013;-74
2024/03/13 12:24:21;;;;;;;1.83;1.73;;;11.30;99.90;;;;;;5009914;28;20619;-74
2024/03/13 12:26:52;;;;;;;1.60;1.50;;;11.40;99.90;;;;;;5111353;27;20630;-74
2024/03/13 12:29:18;;;;;;;0.90;0.60;;;11.50;99.90;;;;;;5104182;27;21194;-74
2024/03/13 12:31:46;;;;;;;0.83;0.80;;;11.50;99.90;;;;;;5011183;28;20634;-74
2024/03/13 12:34:13;;;;;;;1.00;0.60;;;11.50;99.90;;;;;;5010285;28;20636;-74
2024/03/13 12:36:44;;;;;;;1.60;1.50;;;11.40;99.90;;;;;;5009306;28;20630;-74
2024/03/13 12:39:11;;;;;;;1.17;1.07;;;11.30;99.90;;;;;;5010757;27;20628;-74
2024/03/13 12:41:38;;;;;;;1.00;0.90;;;11.40;99.90;;;;;;5016137;28;21156;-74
2024/03/13 12:44:06;;;;;;;0.67;0.63;;;11.60;99.90;;;;;;5031579;27;20631;-74
2024/03/13 12:46:33;;;;;;;0.57;0.43;;;11.80;99.90;;;;;;5012648;28;20644;-74
2024/03/13 12:48:59;;;;;;;0.60;0.43;;;11.80;99.90;;;;;;5011189;28;20753;-73
2024/03/13 12:51:28;;;;;;;0.50;0.50;;;11.70;99.90;;;;;;5112692;27;20730;-74
2024/03/13 12:53:55;;;;;;;0.80;0.73;;;11.70;99.90;;;;;;5012900;28;21084;-74
2024/03/13 12:56:22;;;;;;;1.13;1.00;;;11.60;99.90;;;;;;5021073;28;20662;-74
2024/03/13 12:58:49;;;;;;;0.93;0.80;;;11.50;99.90;;;;;;5023512;28;20639;-74
2024/03/13 13:01:16;;;;;;;2.10;1.90;;;11.40;99.90;;;;;;5027201;28;20632;-74
2024/03/13 13:03:43;;;;;;;3.30;2.90;;;11.40;99.90;;;;;;5016903;28;20635;-74
2024/03/13 13:06:10;;;;;;;4.23;2.70;;;11.50;99.90;;;;;;5019929;28;20732;-74
2024/03/13 13:08:38;;;;;;;2.80;2.27;;;11.60;99.90;;;;;;5015917;28;20656;-74
2024/03/13 13:11:05;;;;;;;2.17;1.23;;;11.70;99.90;;;;;;5100679;27;20636;-73
2024/03/13 13:13:32;;;;;;;4.70;2.30;;;11.70;99.90;;;;;;5012260;28;20635;-73